Pamlico — WX6900 — position and weather

sailwx.info

Track history (hours):
 
Tides and Currents Weather Stations Pressure Air Temp Water Temp Dewpoint Dewpoint Depression Visibility Wind Speed Wind Dir Waves Ship Positions

Pamlico

Owner: PCS Phosphate, AURORA, NC. More information available from US FCC via Universal Licensing System and Coast Guard Vessel Documentation Center.

Last reported at 2016-Feb-09 19:34 UTC. Time now 2016-Feb-13 17:18 UTC.
Position N 34°57' W 076°40'.

Length 30 m; draft 3 m.

MMSI: 367361220.

Date/timePositionNaut miles runAvg speedWind from/ knotsBaromVisibWave heightAir tempDewpointWater temp
2016-Feb-09 19:34N 34°57' W 076°40'6 6.1
2016-Feb-09 18:34N 34°51' W 076°41'6 6.5
2016-Feb-09 17:33N 34°44' W 076°41'1 1.4
2016-Feb-09 16:34N 34°43' W 076°41'4 3.9
2016-Feb-09 15:33N 34°47' W 076°41'5 4.6
2016-Feb-09 14:33N 34°51' W 076°41'4 3.8
2016-Feb-09 13:33N 34°55' W 076°40'8 5.0
2016-Feb-09 12:03N 35°02' W 076°37'6 6.9
2016-Feb-09 11:14N 35°05' W 076°32'9 0.8
2016-Feb-08 23:17N 35°00' W 076°41'4 5.3
2016-Feb-08 22:34N 34°56' W 076°39'5 4.9
2016-Feb-08 21:33N 34°52' W 076°41'5 4.8
2016-Feb-08 20:33N 34°47' W 076°41'4 3.6
2016-Feb-08 19:34N 34°43' W 076°42'1 0.6
2016-Feb-08 18:33N 34°43' W 076°41'1 1.2
2016-Feb-08 17:34N 34°44' W 076°41'6 5.7
2016-Feb-08 16:33N 34°50' W 076°41'4 4.3
2016-Feb-08 15:33N 34°54' W 076°41'5 4.6
2016-Feb-08 14:33N 34°59' W 076°42'0 0.0
2016-Feb-06 21:33N 34°59' W 076°41'5 5.0
2016-Feb-06 20:33N 34°54' W 076°41'4 4.2
2016-Feb-06 19:33N 34°50' W 076°41'5 4.7
2016-Feb-06 18:33N 34°45' W 076°40'2 2.5
2016-Feb-06 17:33N 34°43' W 076°41'0 0.1
2016-Feb-06 16:33N 34°43' W 076°41'1 0.7
2016-Feb-06 15:33N 34°43' W 076°42'0 0.0
2016-Feb-06 14:33N 34°43' W 076°42'0 0.0
2016-Feb-06 13:33N 34°43' W 076°42'0 0.0
2016-Feb-06 12:33N 34°43' W 076°42'0 0.4
2016-Feb-06 11:34N 34°43' W 076°42'0 0.5
2016-Feb-06 10:34N 34°43' W 076°42'4 3.7
2016-Feb-06 09:33N 34°47' W 076°41'5 4.9
2016-Feb-06 08:34N 34°52' W 076°41'5 5.1
2016-Feb-06 07:34N 34°57' W 076°40'5 5.0
2016-Feb-06 06:28N 35°02' W 076°37'6 6.3
2016-Feb-06 05:33N 35°05' W 076°32'11 0.8
2016-Feb-05 15:33N 34°57' W 076°40'6 5.8
2016-Feb-05 14:33N 34°51' W 076°41'6 5.7
2016-Feb-05 13:33N 34°46' W 076°41'3 2.6
2016-Feb-05 12:33N 34°43' W 076°42'0 0.0
2016-Feb-05 11:34N 34°43' W 076°42'0 0.0
2016-Feb-05 10:34N 34°43' W 076°42'0 0.0
2016-Feb-05 09:33N 34°43' W 076°42'0 0.0
2016-Feb-05 08:34N 34°43' W 076°42'0 0.0
2016-Feb-05 07:33N 34°43' W 076°42'4 3.6
2016-Feb-05 06:33N 34°47' W 076°41'7 6.6
2016-Feb-05 05:34N 34°53' W 076°41'6 5.3
2016-Feb-05 04:25N 34°59' W 076°41'6 0.5
2016-Feb-04 15:32N 35°03' W 076°36'7 6.8
2016-Feb-04 14:33N 34°58' W 076°41'6 5.8
2016-Feb-04 13:34N 34°52' W 076°41'7 6.8
2016-Feb-04 12:33N 34°45' W 076°40'2 2.4
2016-Feb-04 11:34N 34°43' W 076°42'1 0.7
2016-Feb-04 10:33N 34°44' W 076°41'5 5.1
2016-Feb-04 09:34N 34°49' W 076°41'4 4.3
2016-Feb-04 08:33N 34°53' W 076°41'4 4.4
2016-Feb-04 07:33N 34°58' W 076°41'6 0.4
2016-Feb-03 16:27N 35°02' W 076°37'6 6.3
2016-Feb-03 15:33N 34°58' W 076°41'5 4.6
2016-Feb-03 14:33N 34°54' W 076°41'5 5.4
2016-Feb-03 13:34N 34°48' W 076°41'5 4.7
2016-Feb-03 12:33N 34°43' W 076°42'0 0.2
2016-Feb-03 11:33N 34°43' W 076°42'0 0.1
2016-Feb-03 10:34N 34°43' W 076°42'3 3.4
2016-Feb-03 09:33N 34°47' W 076°41'4 4.5
2016-Feb-03 08:33N 34°51' W 076°41'4 4.2
2016-Feb-03 07:33N 34°55' W 076°40'16 5.4
2016-Feb-03 04:33N 35°10' W 076°32'8 0.9
2016-Feb-02 19:13N 35°03' W 076°36'5 8.0
2016-Feb-02 18:33N 34°59' W 076°41'6 5.8
2016-Feb-02 17:33N 34°54' W 076°41'6 5.8
2016-Feb-02 16:34N 34°48' W 076°41'5 4.8
2016-Feb-02 15:34N 34°43' W 076°42'0 0.2
2016-Feb-02 14:33N 34°43' W 076°42'0 0.3
2016-Feb-02 13:33N 34°44' W 076°42'6 5.6
2016-Feb-02 12:34N 34°49' W 076°41'6 5.6
2016-Feb-02 11:33N 34°55' W 076°40'5 5.0
2016-Feb-02 10:33N 34°60' W 076°41'7 6.8
2016-Feb-02 09:29N 35°04' W 076°34'8 0.6
2016-Feb-01 19:33N 34°58' W 076°41'6 6.1
2016-Feb-01 18:33N 34°52' W 076°42'7 7.1
2016-Feb-01 17:34N 34°45' W 076°40'2 2.0
2016-Feb-01 16:34N 34°43' W 076°42'0 0.0
2016-Feb-01 15:33N 34°43' W 076°42'0 0.1
2016-Feb-01 14:33N 34°43' W 076°42'6 5.6
2016-Feb-01 13:34N 34°49' W 076°41'6 6.1
2016-Feb-01 12:34N 34°55' W 076°40'6 5.7
2016-Feb-01 11:33N 35°01' W 076°40'7 7.0
2016-Feb-01 10:33N 35°04' W 076°33'2 0.2
2016-Jan-31 23:33N 35°06' W 076°31'12 5.9
2016-Jan-31 21:33N 34°57' W 076°41'5 5.0
2016-Jan-31 20:34N 34°52' W 076°42'6 6.0
2016-Jan-31 19:33N 34°46' W 076°41'3 2.9
2016-Jan-31 18:33N 34°43' W 076°42'0 0.1
2016-Jan-31 17:33N 34°43' W 076°42'0 0.0
2016-Jan-31 16:33N 34°43' W 076°42'0 0.0
2016-Jan-31 15:34N 34°43' W 076°42'0 0.0
2016-Jan-31 14:33N 34°43' W 076°42'0 0.0
2016-Jan-31 13:33N 34°43' W 076°42'1 0.6
2016-Jan-31 12:34N 34°43' W 076°41'1 0.6
2016-Jan-31 11:33N 34°43' W 076°42'3 2.5
2016-Jan-31 10:34N 34°46' W 076°41'5 5.2
2016-Jan-31 09:34N 34°51' W 076°41'4 4.1
2016-Jan-31 08:33N 34°55' W 076°40'5 4.9
2016-Jan-31 07:33N 34°60' W 076°41'6 6.4
2016-Jan-31 06:33N 35°03' W 076°35'6 6.4
2016-Jan-31 05:34N 35°08' W 076°30'6 5.9
2016-Jan-31 04:29N 35°13' W 076°35'  
Track history (hours):
 
Tides and Currents Weather Stations Pressure Air Temp Water Temp Dewpoint Dewpoint Depression Visibility Wind Speed Wind Dir Waves Ship Positions

Pamlico

Owner: PCS Phosphate, AURORA, NC. More information available from US FCC via Universal Licensing System and Coast Guard Vessel Documentation Center.

Last reported at 2016-Feb-09 19:34 UTC. Time now 2016-Feb-13 17:18 UTC.
Position N 34°57' W 076°40'.

Length 30 m; draft 3 m.

MMSI: 367361220.

Date/timePositionNaut miles runAvg speedWind from/ knotsBaromVisibWave heightAir tempDewpointWater temp
2016-Feb-09 19:34N 34°57' W 076°40'6 6.1
2016-Feb-09 18:34N 34°51' W 076°41'6 6.5
2016-Feb-09 17:33N 34°44' W 076°41'1 1.4
2016-Feb-09 16:34N 34°43' W 076°41'4 3.9
2016-Feb-09 15:33N 34°47' W 076°41'5 4.6
2016-Feb-09 14:33N 34°51' W 076°41'4 3.8
2016-Feb-09 13:33N 34°55' W 076°40'8 5.0
2016-Feb-09 12:03N 35°02' W 076°37'6 6.9
2016-Feb-09 11:14N 35°05' W 076°32'9 0.8
2016-Feb-08 23:17N 35°00' W 076°41'4 5.3
2016-Feb-08 22:34N 34°56' W 076°39'5 4.9
2016-Feb-08 21:33N 34°52' W 076°41'5 4.8
2016-Feb-08 20:33N 34°47' W 076°41'4 3.6
2016-Feb-08 19:34N 34°43' W 076°42'1 0.6
2016-Feb-08 18:33N 34°43' W 076°41'1 1.2
2016-Feb-08 17:34N 34°44' W 076°41'6 5.7
2016-Feb-08 16:33N 34°50' W 076°41'4 4.3
2016-Feb-08 15:33N 34°54' W 076°41'5 4.6
2016-Feb-08 14:33N 34°59' W 076°42'0 0.0
2016-Feb-06 21:33N 34°59' W 076°41'5 5.0
2016-Feb-06 20:33N 34°54' W 076°41'4 4.2
2016-Feb-06 19:33N 34°50' W 076°41'5 4.7
2016-Feb-06 18:33N 34°45' W 076°40'2 2.5
2016-Feb-06 17:33N 34°43' W 076°41'0 0.1
2016-Feb-06 16:33N 34°43' W 076°41'1 0.7
2016-Feb-06 15:33N 34°43' W 076°42'0 0.0
2016-Feb-06 14:33N 34°43' W 076°42'0 0.0
2016-Feb-06 13:33N 34°43' W 076°42'0 0.0
2016-Feb-06 12:33N 34°43' W 076°42'0 0.4
2016-Feb-06 11:34N 34°43' W 076°42'0 0.5
2016-Feb-06 10:34N 34°43' W 076°42'4 3.7
2016-Feb-06 09:33N 34°47' W 076°41'5 4.9
2016-Feb-06 08:34N 34°52' W 076°41'5 5.1
2016-Feb-06 07:34N 34°57' W 076°40'5 5.0
2016-Feb-06 06:28N 35°02' W 076°37'6 6.3
2016-Feb-06 05:33N 35°05' W 076°32'11 0.8
2016-Feb-05 15:33N 34°57' W 076°40'6 5.8
2016-Feb-05 14:33N 34°51' W 076°41'6 5.7
2016-Feb-05 13:33N 34°46' W 076°41'3 2.6
2016-Feb-05 12:33N 34°43' W 076°42'0 0.0
2016-Feb-05 11:34N 34°43' W 076°42'0 0.0
2016-Feb-05 10:34N 34°43' W 076°42'0 0.0
2016-Feb-05 09:33N 34°43' W 076°42'0 0.0
2016-Feb-05 08:34N 34°43' W 076°42'0 0.0
2016-Feb-05 07:33N 34°43' W 076°42'4 3.6
2016-Feb-05 06:33N 34°47' W 076°41'7 6.6
2016-Feb-05 05:34N 34°53' W 076°41'6 5.3
2016-Feb-05 04:25N 34°59' W 076°41'6 0.5
2016-Feb-04 15:32N 35°03' W 076°36'7 6.8
2016-Feb-04 14:33N 34°58' W 076°41'6 5.8
2016-Feb-04 13:34N 34°52' W 076°41'7 6.8
2016-Feb-04 12:33N 34°45' W 076°40'2 2.4
2016-Feb-04 11:34N 34°43' W 076°42'1 0.7
2016-Feb-04 10:33N 34°44' W 076°41'5 5.1
2016-Feb-04 09:34N 34°49' W 076°41'4 4.3
2016-Feb-04 08:33N 34°53' W 076°41'4 4.4
2016-Feb-04 07:33N 34°58' W 076°41'6 0.4
2016-Feb-03 16:27N 35°02' W 076°37'6 6.3
2016-Feb-03 15:33N 34°58' W 076°41'5 4.6
2016-Feb-03 14:33N 34°54' W 076°41'5 5.4
2016-Feb-03 13:34N 34°48' W 076°41'5 4.7
2016-Feb-03 12:33N 34°43' W 076°42'0 0.2
2016-Feb-03 11:33N 34°43' W 076°42'0 0.1
2016-Feb-03 10:34N 34°43' W 076°42'3 3.4
2016-Feb-03 09:33N 34°47' W 076°41'4 4.5
2016-Feb-03 08:33N 34°51' W 076°41'4 4.2
2016-Feb-03 07:33N 34°55' W 076°40'16 5.4
2016-Feb-03 04:33N 35°10' W 076°32'8 0.9
2016-Feb-02 19:13N 35°03' W 076°36'5 8.0
2016-Feb-02 18:33N 34°59' W 076°41'6 5.8
2016-Feb-02 17:33N 34°54' W 076°41'6 5.8
2016-Feb-02 16:34N 34°48' W 076°41'5 4.8
2016-Feb-02 15:34N 34°43' W 076°42'0 0.2
2016-Feb-02 14:33N 34°43' W 076°42'0 0.3
2016-Feb-02 13:33N 34°44' W 076°42'6 5.6
2016-Feb-02 12:34N 34°49' W 076°41'6 5.6
2016-Feb-02 11:33N 34°55' W 076°40'5 5.0
2016-Feb-02 10:33N 34°60' W 076°41'7 6.8
2016-Feb-02 09:29N 35°04' W 076°34'8 0.6
2016-Feb-01 19:33N 34°58' W 076°41'6 6.1
2016-Feb-01 18:33N 34°52' W 076°42'7 7.1
2016-Feb-01 17:34N 34°45' W 076°40'2 2.0
2016-Feb-01 16:34N 34°43' W 076°42'0 0.0
2016-Feb-01 15:33N 34°43' W 076°42'0 0.1
2016-Feb-01 14:33N 34°43' W 076°42'6 5.6
2016-Feb-01 13:34N 34°49' W 076°41'6 6.1
2016-Feb-01 12:34N 34°55' W 076°40'6 5.7
2016-Feb-01 11:33N 35°01' W 076°40'7 7.0
2016-Feb-01 10:33N 35°04' W 076°33'2 0.2
2016-Jan-31 23:33N 35°06' W 076°31'12 5.9
2016-Jan-31 21:33N 34°57' W 076°41'5 5.0
2016-Jan-31 20:34N 34°52' W 076°42'6 6.0
2016-Jan-31 19:33N 34°46' W 076°41'3 2.9
2016-Jan-31 18:33N 34°43' W 076°42'0 0.1
2016-Jan-31 17:33N 34°43' W 076°42'0 0.0
2016-Jan-31 16:33N 34°43' W 076°42'0 0.0
2016-Jan-31 15:34N 34°43' W 076°42'0 0.0
2016-Jan-31 14:33N 34°43' W 076°42'0 0.0
2016-Jan-31 13:33N 34°43' W 076°42'1 0.6
2016-Jan-31 12:34N 34°43' W 076°41'1 0.6
2016-Jan-31 11:33N 34°43' W 076°42'3 2.5
2016-Jan-31 10:34N 34°46' W 076°41'5 5.2
2016-Jan-31 09:34N 34°51' W 076°41'4 4.1
2016-Jan-31 08:33N 34°55' W 076°40'5 4.9
2016-Jan-31 07:33N 34°60' W 076°41'6 6.4
2016-Jan-31 06:33N 35°03' W 076°35'6 6.4
2016-Jan-31 05:34N 35°08' W 076°30'6 5.9
2016-Jan-31 04:29N 35°13' W 076°35'  

Dump ship's entire track history